createdAt,value
2019-03-22T00:01:00.789Z,27.77
2019-03-22T00:03:36.510Z,24.47
2019-03-22T00:06:12.239Z,24.77
2019-03-22T00:08:47.307Z,24.60
2019-03-22T00:11:23.440Z,20.43
2019-03-22T00:13:58.311Z,22.95
2019-03-22T00:16:32.949Z,32.33
2019-03-22T00:19:06.509Z,28.20
2019-03-22T00:21:41.281Z,26.42
2019-03-22T00:24:15.344Z,27.67
2019-03-22T00:26:50.117Z,28.12
2019-03-22T00:29:25.432Z,30.80
2019-03-22T00:32:00.210Z,34.77
2019-03-22T00:34:33.771Z,41.37
2019-03-22T00:37:07.965Z,37.25
2019-03-22T00:39:40.227Z,35.10
2019-03-22T00:42:13.369Z,34.80
2019-03-22T00:44:47.182Z,36.13
2019-03-22T00:47:20.945Z,30.37
2019-03-22T00:49:54.589Z,33.40
2019-03-22T00:52:28.690Z,28.93
2019-03-22T00:55:02.473Z,31.65
2019-03-22T00:57:37.105Z,30.15
2019-03-22T01:00:12.338Z,36.53
2019-03-22T01:02:47.157Z,34.20
2019-03-22T01:05:21.510Z,40.97
2019-03-22T01:07:56.787Z,48.17
2019-03-22T01:10:30.617Z,54.83
2019-03-22T01:13:02.059Z,53.83
2019-03-22T01:15:35.512Z,58.80
2019-03-22T01:18:10.831Z,55.85
2019-03-22T01:20:44.652Z,58.65
2019-03-22T01:23:20.156Z,54.93
2019-03-22T01:25:55.487Z,58.13
2019-03-22T01:28:31.023Z,53.73
2019-03-22T01:31:06.644Z,56.30
2019-03-22T01:33:42.017Z,57.30
2019-03-22T01:36:17.220Z,58.33
2019-03-22T01:38:53.348Z,57.23
2019-03-22T01:41:28.110Z,58.47
2019-03-22T01:44:04.825Z,63.68
2019-03-22T01:46:40.207Z,59.60
2019-03-22T01:49:18.566Z,56.35
2019-03-22T01:51:52.191Z,58.20
2019-03-22T01:54:28.166Z,61.28
2019-03-22T01:57:03.702Z,61.35
2019-03-22T01:59:38.990Z,63.90
2019-03-22T02:02:12.133Z,62.90
2019-03-22T02:04:45.552Z,66.55
2019-03-22T02:07:18.910Z,63.08
2019-03-22T02:09:54.259Z,59.03
2019-03-22T02:12:28.835Z,63.67
2019-03-22T02:15:02.896Z,61.10
2019-03-22T02:17:35.856Z,61.42
2019-03-22T02:20:09.783Z,63.04
2019-03-22T02:22:42.591Z,56.13
2019-03-22T02:25:18.491Z,58.43
2019-03-22T02:28:03.702Z,59.15
2019-03-22T02:30:31.734Z,58.83
2019-03-22T02:33:05.770Z,62.73
2019-03-22T02:35:39.821Z,58.75
2019-03-22T02:38:13.999Z,56.10
2019-03-22T02:40:48.765Z,61.75
2019-03-22T02:43:22.462Z,59.53
2019-03-22T02:45:56.779Z,60.23
2019-03-22T02:48:30.600Z,60.83
2019-03-22T02:51:04.722Z,54.80
2019-03-22T02:53:38.919Z,62.35
2019-03-22T02:56:12.875Z,60.57
2019-03-22T02:58:45.183Z,59.67
2019-03-22T03:01:19.863Z,60.38
2019-03-22T03:04:04.881Z,58.48
2019-03-22T03:06:49.090Z,60.37
2019-03-22T03:09:41.897Z,55.90
2019-03-22T03:12:27.722Z,59.95
2019-03-22T03:15:08.266Z,53.90
2019-03-22T03:20:46.155Z,53.63
2019-03-22T03:23:27.171Z,51.58
2019-03-22T03:26:02.600Z,54.90
2019-03-22T03:28:38.441Z,53.23
2019-03-22T03:31:13.821Z,54.45
2019-03-22T03:33:50.803Z,55.33
2019-03-22T03:36:26.608Z,56.70
2019-03-22T03:39:02.121Z,53.68
2019-03-22T03:41:37.718Z,55.13
2019-03-22T03:44:13.700Z,55.97
2019-03-22T03:46:46.115Z,54.03
2019-03-22T03:49:17.743Z,56.30
2019-03-22T03:51:51.487Z,55.33
2019-03-22T03:54:25.989Z,55.07
2019-03-22T03:56:58.096Z,58.43
2019-03-22T03:59:30.915Z,60.35
2019-03-22T04:02:02.403Z,56.13
2019-03-22T04:04:35.566Z,57.17
2019-03-22T04:07:10.355Z,58.22
2019-03-22T04:09:42.425Z,60.90
2019-03-22T04:12:15.145Z,61.28
2019-03-22T04:14:47.478Z,59.03
2019-03-22T04:17:18.527Z,60.17
2019-03-22T04:19:52.576Z,57.58
2019-03-22T04:22:24.927Z,59.13
2019-03-22T04:24:57.691Z,63.33
2019-03-22T04:27:31.413Z,63.97
2019-03-22T04:30:03.425Z,59.88
2019-03-22T04:32:34.100Z,60.95
2019-03-22T04:35:06.438Z,60.23
2019-03-22T04:37:39.094Z,59.77
2019-03-22T04:40:23.760Z,60.20
2019-03-22T04:42:58.815Z,63.33
2019-03-22T04:45:35.467Z,63.97
2019-03-22T04:48:11.601Z,66.60
2019-03-22T04:50:47.678Z,53.67
2019-03-22T04:53:23.406Z,67.55
2019-03-22T04:55:59.571Z,62.60
2019-03-22T04:58:35.592Z,64.55
2019-03-22T05:01:12.508Z,63.23
2019-03-22T05:03:47.920Z,62.73
2019-03-22T05:06:24.352Z,62.60
2019-03-22T05:08:59.978Z,64.17
2019-03-22T05:11:36.474Z,65.32
2019-03-22T05:14:11.818Z,60.63
2019-03-22T05:16:48.241Z,58.83
2019-03-22T05:19:23.602Z,61.87
2019-03-22T05:22:01.553Z,63.57
2019-03-22T05:24:36.919Z,63.10
2019-03-22T05:27:12.563Z,63.03
2019-03-22T05:29:47.073Z,63.95
2019-03-22T05:32:22.807Z,63.78
2019-03-22T05:34:57.163Z,64.30
2019-03-22T05:37:32.124Z,61.63
2019-03-22T05:40:06.999Z,64.92
2019-03-22T05:42:41.991Z,65.40
2019-03-22T05:45:16.763Z,64.43
2019-03-22T05:47:51.793Z,63.08
2019-03-22T05:50:26.295Z,65.07
2019-03-22T05:53:01.128Z,62.25
2019-03-22T05:55:35.462Z,59.23
2019-03-22T05:58:10.993Z,64.76
2019-03-22T06:00:55.303Z,63.90
2019-03-22T06:03:31.279Z,62.45
2019-03-22T06:06:05.559Z,56.85
2019-03-22T06:08:39.878Z,68.97
2019-03-22T06:11:13.845Z,67.80
2019-03-22T06:13:48.666Z,62.95
2019-03-22T06:16:24.165Z,68.78
2019-03-22T06:19:00.937Z,69.20
2019-03-22T06:24:09.168Z,68.07
2019-03-22T06:26:44.195Z,67.73
2019-03-22T06:29:20.988Z,60.12
2019-03-22T06:34:29.693Z,65.87
2019-03-22T06:37:05.090Z,70.12
2019-03-22T06:39:40.184Z,68.70
2019-03-22T06:42:15.348Z,68.80
2019-03-22T06:44:50.870Z,66.87
2019-03-22T06:47:26.088Z,66.28
2019-03-22T06:50:01.665Z,65.70
2019-03-22T06:52:36.522Z,68.10
2019-03-22T06:55:11.022Z,65.90
2019-03-22T06:57:45.506Z,66.27
2019-03-22T07:00:21.069Z,64.45
2019-03-22T07:02:54.045Z,65.60
2019-03-22T07:05:24.916Z,64.50
2019-03-22T07:07:55.895Z,70.00
2019-03-22T07:10:27.812Z,70.65
2019-03-22T07:12:59.092Z,67.85
2019-03-22T07:15:29.569Z,70.55
2019-03-22T07:18:00.046Z,69.37
2019-03-22T07:20:30.071Z,69.00
2019-03-22T07:23:00.343Z,74.77
2019-03-22T07:25:30.415Z,68.63
2019-03-22T07:28:00.295Z,65.32
2019-03-22T07:30:30.715Z,67.05
2019-03-22T07:33:01.048Z,67.17
2019-03-22T07:35:31.343Z,55.10
2019-03-22T07:38:01.509Z,62.97
2019-03-22T07:40:31.034Z,64.22
2019-03-22T07:43:00.536Z,65.22
2019-03-22T07:45:30.857Z,66.67
2019-03-22T07:48:01.025Z,67.80
2019-03-22T07:50:31.655Z,68.75
2019-03-22T07:53:01.686Z,67.95
2019-03-22T07:55:31.420Z,67.60
2019-03-22T07:58:05.884Z,68.17
2019-03-22T08:00:39.192Z,69.80
2019-03-22T08:03:08.805Z,66.42
2019-03-22T08:05:38.464Z,66.53
2019-03-22T08:08:09.230Z,60.50
2019-03-22T08:10:40.826Z,66.22
2019-03-22T08:13:11.616Z,65.45
2019-03-22T08:15:41.455Z,63.87
2019-03-22T08:18:12.252Z,62.40
2019-03-22T08:20:44.775Z,63.78
2019-03-22T08:23:20.006Z,66.83
2019-03-22T08:25:52.952Z,62.83
2019-03-22T08:28:24.956Z,63.07
2019-03-22T08:30:54.526Z,61.68
2019-03-22T08:33:28.266Z,68.87
2019-03-22T08:36:07.873Z,64.87
2019-03-22T08:38:52.349Z,63.83
2019-03-22T08:41:32.158Z,60.58
2019-03-22T08:44:10.471Z,62.40
2019-03-22T08:46:48.510Z,63.52
2019-03-22T08:49:28.875Z,61.07
2019-03-22T08:52:03.188Z,59.07
2019-03-22T08:54:41.448Z,65.47
2019-03-22T08:57:21.130Z,69.15
2019-03-22T09:00:01.363Z,67.35
2019-03-22T09:02:41.330Z,65.40
2019-03-22T09:05:22.313Z,63.50
2019-03-22T09:08:02.381Z,63.28
2019-03-22T09:10:43.108Z,67.83
2019-03-22T09:13:23.264Z,66.87
2019-03-22T09:16:02.681Z,67.90
2019-03-22T09:18:40.531Z,68.02
2019-03-22T09:21:21.144Z,69.80
2019-03-22T09:24:01.903Z,65.60
2019-03-22T09:26:47.715Z,67.60
2019-03-22T09:29:22.624Z,67.22
2019-03-22T09:32:04.023Z,59.90
2019-03-22T09:34:44.043Z,61.93
2019-03-22T09:37:19.518Z,60.30
2019-03-22T09:39:56.999Z,58.87
2019-03-22T09:42:37.118Z,58.48
2019-03-22T09:45:10.225Z,61.60
2019-03-22T09:47:41.053Z,59.27
2019-03-22T09:50:12.822Z,58.68
2019-03-22T09:52:42.761Z,57.15
2019-03-22T09:55:21.909Z,54.20
2019-03-22T09:58:02.244Z,51.47
2019-03-22T10:00:48.289Z,53.95
2019-03-22T10:06:19.863Z,58.25
2019-03-22T10:08:50.154Z,52.35
2019-03-22T10:11:22.395Z,49.23
2019-03-22T10:13:57.285Z,56.80
2019-03-22T10:16:37.379Z,50.83
2019-03-22T10:19:17.000Z,51.67
2019-03-22T10:21:49.659Z,55.12
2019-03-22T10:24:21.813Z,49.93
2019-03-22T10:27:00.847Z,54.35
2019-03-22T10:29:35.850Z,52.53
2019-03-22T10:32:15.425Z,49.64
2019-03-22T10:34:50.321Z,50.87
2019-03-22T10:37:21.404Z,55.70
2019-03-22T10:39:57.563Z,51.10
2019-03-22T10:42:33.370Z,53.65
2019-03-22T10:45:09.632Z,52.70
2019-03-22T10:47:42.345Z,49.27
2019-03-22T10:50:13.302Z,54.95
2019-03-22T10:52:43.302Z,57.30
2019-03-22T10:55:29.225Z,55.13
2019-03-22T10:57:48.041Z,61.30
2019-03-22T11:00:26.009Z,55.38
2019-03-22T11:03:06.432Z,56.08
2019-03-22T11:05:45.398Z,55.65
2019-03-22T11:08:23.045Z,58.33
2019-03-22T11:11:00.667Z,57.40
2019-03-22T11:13:38.356Z,55.15
2019-03-22T11:16:11.599Z,53.42
2019-03-22T11:18:51.543Z,57.30
2019-03-22T11:21:23.400Z,60.57
2019-03-22T11:23:59.020Z,58.80
2019-03-22T11:26:27.824Z,64.43
2019-03-22T11:28:56.394Z,59.30
2019-03-22T11:31:28.563Z,58.50
2019-03-22T11:33:56.032Z,55.27
2019-03-22T11:36:26.146Z,60.53
2019-03-22T11:38:55.327Z,56.65
2019-03-22T11:41:24.043Z,59.13
2019-03-22T11:43:52.947Z,63.80
2019-03-22T11:46:21.983Z,64.20
2019-03-22T11:48:50.576Z,63.10
2019-03-22T11:51:19.256Z,63.73
2019-03-22T11:53:47.838Z,63.95
2019-03-22T11:56:16.643Z,62.17
2019-03-22T11:58:46.355Z,66.42
2019-03-22T12:01:20.293Z,67.27
2019-03-22T12:03:45.554Z,67.10
2019-03-22T12:06:15.361Z,61.87
2019-03-22T12:08:44.248Z,59.00
2019-03-22T12:11:12.927Z,63.80
2019-03-22T12:13:41.842Z,64.37
2019-03-22T12:16:10.408Z,64.00
2019-03-22T12:18:39.111Z,63.98
2019-03-22T12:21:07.872Z,60.17
2019-03-22T12:23:36.768Z,62.00
2019-03-22T12:26:06.560Z,61.37
2019-03-22T12:28:35.983Z,60.33
2019-03-22T12:31:05.479Z,68.23
2019-03-22T12:33:34.679Z,67.30
2019-03-22T12:36:03.194Z,63.08
2019-03-22T12:38:32.356Z,68.50
2019-03-22T12:41:01.245Z,73.53
2019-03-22T12:43:30.355Z,70.43
2019-03-22T12:45:59.271Z,64.92
2019-03-22T12:48:28.110Z,62.90
2019-03-22T12:50:56.642Z,65.30
2019-03-22T12:53:25.175Z,62.03
2019-03-22T12:55:54.598Z,62.83
2019-03-22T12:58:23.160Z,64.80
2019-03-22T13:00:51.744Z,59.23
2019-03-22T13:03:20.323Z,66.23
2019-03-22T13:05:49.210Z,57.17
2019-03-22T13:08:18.219Z,68.97
2019-03-22T13:10:46.696Z,64.32
2019-03-22T13:13:15.581Z,65.00
2019-03-22T13:15:44.789Z,62.17
2019-03-22T13:18:13.288Z,57.33
2019-03-22T13:20:42.259Z,61.57
2019-03-22T13:23:10.827Z,58.20
2019-03-22T13:25:39.403Z,61.83
2019-03-22T13:28:08.118Z,64.62
2019-03-22T13:30:36.979Z,61.60
2019-03-22T13:33:06.688Z,64.00
2019-03-22T13:35:35.276Z,60.70
2019-03-22T13:38:04.055Z,62.17
2019-03-22T13:40:32.943Z,63.83
2019-03-22T13:43:01.526Z,60.75
2019-03-22T13:45:30.625Z,60.83
2019-03-22T13:48:00.052Z,63.58
2019-03-22T13:50:29.424Z,63.60
2019-03-22T13:52:58.132Z,59.73
2019-03-22T13:55:26.690Z,60.75
2019-03-22T13:57:55.404Z,59.85
2019-03-22T14:00:29.811Z,65.03
2019-03-22T14:03:02.836Z,65.07
2019-03-22T14:05:29.211Z,61.42
2019-03-22T14:07:57.690Z,61.90
2019-03-22T14:10:36.207Z,70.52
2019-03-22T14:13:06.331Z,61.40
2019-03-22T14:15:34.909Z,62.98
2019-03-22T14:18:04.104Z,60.85
2019-03-22T14:20:34.122Z,61.33
2019-03-22T14:23:03.318Z,62.33
2019-03-22T14:25:31.907Z,59.20
2019-03-22T14:28:01.101Z,57.65
2019-03-22T14:30:30.298Z,60.83
2019-03-22T14:32:59.459Z,61.85
2019-03-22T14:35:28.639Z,60.58
2019-03-22T14:37:57.366Z,55.40
2019-03-22T14:40:26.285Z,57.65
2019-03-22T14:42:54.843Z,57.25
2019-03-22T14:45:24.879Z,52.30
2019-03-22T14:47:53.637Z,58.10
2019-03-22T14:50:23.353Z,60.03
2019-03-22T14:52:53.452Z,52.83
2019-03-22T14:55:22.262Z,53.93
2019-03-22T14:57:52.369Z,51.70
2019-03-22T15:00:32.283Z,55.17
2019-03-22T15:02:57.238Z,54.03
2019-03-22T15:05:26.210Z,59.55
2019-03-22T15:07:54.805Z,53.35
2019-03-22T15:10:23.684Z,59.30
2019-03-22T15:12:52.676Z,59.58
2019-03-22T15:15:25.867Z,53.23
2019-03-22T15:18:05.611Z,55.67
2019-03-22T15:20:41.669Z,56.05
2019-03-22T15:23:15.267Z,56.98
2019-03-22T15:25:45.903Z,54.75
2019-03-22T15:28:18.779Z,52.90
2019-03-22T15:31:05.719Z,54.43
2019-03-22T15:33:36.272Z,54.03
2019-03-22T15:36:13.661Z,56.20
2019-03-22T15:38:44.225Z,64.83
2019-03-22T15:41:13.230Z,67.30
2019-03-22T15:43:41.817Z,67.27
2019-03-22T15:46:10.503Z,59.53
2019-03-22T15:48:39.083Z,71.85
2019-03-22T15:51:07.654Z,66.30
2019-03-22T15:53:36.684Z,61.68
2019-03-22T15:56:06.568Z,62.17
2019-03-22T15:58:37.111Z,69.20
2019-03-22T16:01:07.024Z,72.67
2019-03-22T16:03:44.073Z,76.90
2019-03-22T16:06:06.830Z,77.40
2019-03-22T16:08:35.931Z,76.45
2019-03-22T16:11:06.766Z,71.02
2019-03-22T16:13:35.343Z,66.10
2019-03-22T16:16:04.242Z,74.83
2019-03-22T16:18:32.819Z,80.70
2019-03-22T16:21:02.800Z,79.53
2019-03-22T16:23:31.322Z,78.80
2019-03-22T16:26:00.194Z,81.20
2019-03-22T16:28:28.691Z,77.87
2019-03-22T16:30:59.107Z,75.37
2019-03-22T16:33:27.786Z,71.67
2019-03-22T16:35:58.015Z,85.95
2019-03-22T16:38:26.698Z,77.85
2019-03-22T16:40:56.122Z,74.12
2019-03-22T16:43:24.616Z,89.97
2019-03-22T16:45:53.382Z,84.67
2019-03-22T16:48:23.708Z,74.47
2019-03-22T16:50:52.505Z,85.17
2019-03-22T16:53:23.348Z,87.47
2019-03-22T16:55:52.199Z,83.37
2019-03-22T16:58:20.994Z,81.67
2019-03-22T17:00:50.203Z,83.23
2019-03-22T17:03:19.593Z,85.12
2019-03-22T17:05:48.168Z,83.20
2019-03-22T17:08:17.893Z,82.83
2019-03-22T17:10:47.306Z,80.30
2019-03-22T17:13:16.603Z,85.60
2019-03-22T17:15:45.563Z,79.27
2019-03-22T17:18:14.461Z,86.50
2019-03-22T17:20:43.347Z,86.27
2019-03-22T17:23:13.668Z,86.17
2019-03-22T17:25:42.944Z,89.43
2019-03-22T17:28:11.418Z,87.83
2019-03-22T17:30:41.267Z,89.60
2019-03-22T17:33:10.361Z,86.60
2019-03-22T17:35:39.242Z,81.77
2019-03-22T17:38:07.827Z,127.23
2019-03-22T17:40:36.719Z,89.33
2019-03-22T17:43:06.331Z,90.90
2019-03-22T17:45:35.219Z,95.30
2019-03-22T17:48:05.546Z,89.33
2019-03-22T17:50:36.176Z,95.47
2019-03-22T17:53:06.482Z,91.20
2019-03-22T17:55:35.903Z,97.12
2019-03-22T17:58:07.662Z,95.17
2019-03-22T18:00:36.885Z,93.63
2019-03-22T18:03:07.896Z,94.32
2019-03-22T18:05:36.950Z,99.20
2019-03-22T18:08:06.475Z,103.02
2019-03-22T18:10:35.575Z,115.62
2019-03-22T18:13:05.751Z,97.40
2019-03-22T18:15:34.990Z,92.78
2019-03-22T18:18:05.900Z,93.08
2019-03-22T18:20:35.120Z,94.67
2019-03-22T18:23:05.338Z,107.40
2019-03-22T18:25:34.530Z,105.75
2019-03-22T18:28:03.118Z,98.80
2019-03-22T18:30:32.314Z,105.35
2019-03-22T18:33:01.512Z,114.40
2019-03-22T18:35:30.090Z,117.57
2019-03-22T18:37:59.185Z,124.87
2019-03-22T18:40:27.971Z,124.20
2019-03-22T18:42:56.658Z,124.47
2019-03-22T18:45:25.757Z,129.27
2019-03-22T18:47:54.247Z,167.68
2019-03-22T18:50:22.807Z,198.23
2019-03-22T18:52:51.609Z,157.67
2019-03-22T18:55:22.062Z,148.38
2019-03-22T18:57:52.248Z,137.95
2019-03-22T19:00:22.812Z,156.53
2019-03-22T19:02:52.377Z,143.13
2019-03-22T19:05:22.837Z,151.63
2019-03-22T19:07:53.459Z,145.02
2019-03-22T19:10:26.488Z,146.87
2019-03-22T19:12:56.128Z,134.72
2019-03-22T19:15:27.085Z,139.00
2019-03-22T19:17:55.651Z,116.65
2019-03-22T19:20:26.020Z,159.30
2019-03-22T19:22:54.569Z,157.70
2019-03-22T19:25:23.563Z,176.60
2019-03-22T19:27:52.860Z,177.02
2019-03-22T19:30:21.860Z,199.97
2019-03-22T19:32:50.461Z,178.23
2019-03-22T19:35:19.736Z,169.00
2019-03-22T19:40:41.170Z,181.82
2019-03-22T19:43:11.707Z,186.73
2019-03-22T19:45:40.875Z,216.25
2019-03-22T19:48:09.870Z,236.97
2019-03-22T19:50:41.820Z,266.85
2019-03-22T19:53:16.666Z,221.95
2019-03-22T19:55:48.168Z,235.67
2019-03-22T19:58:16.804Z,207.57
2019-03-22T20:00:45.891Z,194.80
2019-03-22T20:03:16.001Z,247.53
2019-03-22T20:05:46.731Z,233.87
2019-03-22T20:08:18.146Z,239.10
2019-03-22T20:10:47.237Z,237.78
2019-03-22T20:13:17.233Z,211.77
2019-03-22T20:15:46.608Z,180.67
2019-03-22T20:18:15.911Z,233.15
2019-03-22T20:20:44.591Z,253.20
2019-03-22T20:23:13.687Z,247.00
2019-03-22T20:25:42.987Z,241.78
2019-03-22T20:28:11.872Z,243.63
2019-03-22T20:30:40.436Z,250.80
2019-03-22T20:33:09.241Z,241.65
2019-03-22T20:35:38.544Z,269.20
2019-03-22T20:38:07.168Z,229.23
2019-03-22T20:40:36.318Z,236.92
2019-03-22T20:43:05.820Z,241.65
2019-03-22T20:45:36.662Z,185.70
2019-03-22T20:48:06.475Z,199.93
2019-03-22T20:50:36.178Z,209.67
2019-03-22T20:53:07.522Z,210.13
2019-03-22T20:55:36.404Z,207.07
2019-03-22T20:58:07.288Z,204.80
2019-03-22T21:00:36.547Z,189.87
2019-03-22T21:03:07.590Z,185.97
2019-03-22T21:05:36.474Z,203.60
2019-03-22T21:08:06.069Z,215.62
2019-03-22T21:10:35.187Z,195.70
2019-03-22T21:13:04.172Z,227.07
2019-03-22T21:15:33.040Z,229.13
2019-03-22T21:18:01.923Z,244.93
2019-03-22T21:20:32.486Z,259.07
2019-03-22T21:23:01.365Z,225.75
2019-03-22T21:25:32.102Z,210.83
2019-03-22T21:28:01.073Z,218.60
2019-03-22T21:30:30.269Z,235.55
2019-03-22T21:32:59.687Z,270.40
2019-03-22T21:35:37.177Z,259.60
2019-03-22T21:38:10.194Z,248.82
2019-03-22T21:40:30.657Z,235.97
2019-03-22T21:43:01.424Z,267.50
2019-03-22T21:45:30.274Z,232.30
2019-03-22T21:47:58.861Z,228.05
2019-03-22T21:50:27.838Z,253.92
2019-03-22T21:52:56.512Z,233.17
2019-03-22T21:55:25.319Z,244.45
2019-03-22T21:57:53.859Z,240.30
2019-03-22T22:00:23.840Z,222.17
2019-03-22T22:02:52.487Z,271.25
2019-03-22T22:05:20.982Z,256.50
2019-03-22T22:07:49.954Z,253.20
2019-03-22T22:10:23.149Z,226.90
2019-03-22T22:12:57.378Z,247.02
2019-03-22T22:15:31.745Z,249.57
2019-03-22T22:18:10.730Z,222.00
2019-03-22T22:20:44.669Z,238.97
2019-03-22T22:23:18.148Z,246.22
2019-03-22T22:25:51.716Z,239.80
2019-03-22T22:28:24.826Z,245.05
2019-03-22T22:30:56.557Z,247.65
2019-03-22T22:33:29.760Z,281.47
2019-03-22T22:36:03.072Z,289.87
2019-03-22T22:38:35.866Z,291.90
2019-03-22T22:41:09.278Z,295.48
2019-03-22T22:43:42.136Z,330.52
2019-03-22T22:46:14.584Z,396.10
2019-03-22T22:48:48.449Z,522.13
2019-03-22T22:51:20.841Z,584.17
2019-03-22T22:53:54.883Z,443.40
2019-03-22T22:56:27.392Z,386.00
2019-03-22T22:59:00.478Z,437.27
2019-03-22T23:01:33.733Z,356.23
2019-03-22T23:04:07.167Z,347.87
2019-03-22T23:06:39.447Z,390.32
2019-03-22T23:09:13.489Z,397.43
2019-03-22T23:11:44.692Z,559.60
2019-03-22T23:14:16.903Z,718.90
2019-03-22T23:16:45.471Z,426.25
2019-03-22T23:19:14.479Z,884.58
2019-03-22T23:21:43.354Z,731.53
2019-03-22T23:24:11.865Z,614.30
2019-03-22T23:26:40.715Z,681.27
2019-03-22T23:29:09.603Z,661.68
2019-03-22T23:31:38.502Z,932.10
2019-03-22T23:34:07.078Z,1039.40
2019-03-22T23:36:35.767Z,1040.38
2019-03-22T23:39:07.204Z,930.66
2019-03-22T23:41:36.106Z,976.77
2019-03-22T23:44:06.135Z,1240.73
2019-03-22T23:46:35.534Z,1514.43
2019-03-22T23:49:05.630Z,786.77
2019-03-22T23:51:34.210Z,748.35
2019-03-22T23:54:03.023Z,677.30
2019-03-22T23:56:31.599Z,748.85
2019-03-22T23:59:00.472Z,657.47
